sensor_id;sensor_type;location;lat;lon;timestamp;temperature;humidity
51914;DHT22;37940;53.002;6.930;2022-12-10T00:01:15;-3.30;99.90
51914;DHT22;37940;53.002;6.930;2022-12-10T00:03:41;-3.30;99.90
51914;DHT22;37940;53.002;6.930;2022-12-10T00:06:10;-3.30;99.90
51914;DHT22;37940;53.002;6.930;2022-12-10T00:08:36;-3.30;99.90
51914;DHT22;37940;53.002;6.930;2022-12-10T00:11:04;-3.30;99.90
51914;DHT22;37940;53.002;6.930;2022-12-10T00:13:30;-3.40;99.90
51914;DHT22;37940;53.002;6.930;2022-12-10T00:16:01;-3.40;99.90
51914;DHT22;37940;53.002;6.930;2022-12-10T00:18:27;-3.40;99.90
51914;DHT22;37940;53.002;6.930;2022-12-10T00:20:53;-1.90;99.90
51914;DHT22;37940;53.002;6.930;2022-12-10T00:23:19;-3.40;99.90
51914;DHT22;37940;53.002;6.930;2022-12-10T00:25:44;-3.40;99.90
51914;DHT22;37940;53.002;6.930;2022-12-10T00:28:10;-3.50;99.90
51914;DHT22;37940;53.002;6.930;2022-12-10T00:30:36;-3.50;99.90
51914;DHT22;37940;53.002;6.930;2022-12-10T00:33:02;-3.50;99.90
51914;DHT22;37940;53.002;6.930;2022-12-10T00:35:27;-3.60;99.90
51914;DHT22;37940;53.002;6.930;2022-12-10T00:37:53;-3.60;99.90
51914;DHT22;37940;53.002;6.930;2022-12-10T00:40:19;-3.60;99.90
51914;DHT22;37940;53.002;6.930;2022-12-10T00:42:44;-3.60;99.90
51914;DHT22;37940;53.002;6.930;2022-12-10T00:45:10;-3.50;99.90
51914;DHT22;37940;53.002;6.930;2022-12-10T00:47:36;-3.50;99.90
51914;DHT22;37940;53.002;6.930;2022-12-10T00:50:02;-3.50;99.90
51914;DHT22;37940;53.002;6.930;2022-12-10T00:52:28;-3.40;99.90
51914;DHT22;37940;53.002;6.930;2022-12-10T00:54:53;-3.40;99.90
51914;DHT22;37940;53.002;6.930;2022-12-10T00:57:19;-3.40;99.90
51914;DHT22;37940;53.002;6.930;2022-12-10T00:59:45;-3.40;99.90
51914;DHT22;37940;53.002;6.930;2022-12-10T01:02:10;-3.30;99.90
51914;DHT22;37940;53.002;6.930;2022-12-10T01:04:36;-3.30;99.90
51914;DHT22;37940;53.002;6.930;2022-12-10T01:07:02;-3.30;99.90
51914;DHT22;37940;53.002;6.930;2022-12-10T01:09:29;-3.20;99.90
51914;DHT22;37940;53.002;6.930;2022-12-10T01:12:00;-3.10;99.90
51914;DHT22;37940;53.002;6.930;2022-12-10T01:14:32;-3.00;99.90
51914;DHT22;37940;53.002;6.930;2022-12-10T01:17:00;-2.90;99.90
51914;DHT22;37940;53.002;6.930;2022-12-10T01:19:30;-2.90;99.90
51914;DHT22;37940;53.002;6.930;2022-12-10T01:21:57;-2.80;99.90
51914;DHT22;37940;53.002;6.930;2022-12-10T01:24:25;-2.70;99.90
51914;DHT22;37940;53.002;6.930;2022-12-10T01:26:51;-2.60;99.90
51914;DHT22;37940;53.002;6.930;2022-12-10T01:29:17;-2.60;99.90
51914;DHT22;37940;53.002;6.930;2022-12-10T01:31:43;-1.10;99.90
51914;DHT22;37940;53.002;6.930;2022-12-10T01:34:12;-2.50;99.90
51914;DHT22;37940;53.002;6.930;2022-12-10T01:36:41;-2.40;99.90
51914;DHT22;37940;53.002;6.930;2022-12-10T01:39:08;-2.40;99.90
51914;DHT22;37940;53.002;6.930;2022-12-10T01:41:41;-2.40;99.90
51914;DHT22;37940;53.002;6.930;2022-12-10T01:46:38;-2.30;99.90
51914;DHT22;37940;53.002;6.930;2022-12-10T01:49:09;-2.30;99.90
51914;DHT22;37940;53.002;6.930;2022-12-10T01:51:53;-2.30;99.90
51914;DHT22;37940;53.002;6.930;2022-12-10T01:54:31;-2.20;99.90
51914;DHT22;37940;53.002;6.930;2022-12-10T01:57:29;-2.20;99.90
51914;DHT22;37940;53.002;6.930;2022-12-10T02:00:00;-2.20;99.90
51914;DHT22;37940;53.002;6.930;2022-12-10T02:02:33;-2.20;99.90
51914;DHT22;37940;53.002;6.930;2022-12-10T02:13:17;-2.20;99.90
51914;DHT22;37940;53.002;6.930;2022-12-10T02:15:50;-2.30;99.90
51914;DHT22;37940;53.002;6.930;2022-12-10T02:18:24;-2.30;99.90
51914;DHT22;37940;53.002;6.930;2022-12-10T02:20:54;-2.30;99.90
51914;DHT22;37940;53.002;6.930;2022-12-10T02:23:35;-2.40;99.90
51914;DHT22;37940;53.002;6.930;2022-12-10T02:31:32;-2.40;99.90
51914;DHT22;37940;53.002;6.930;2022-12-10T02:34:01;-2.40;99.90
51914;DHT22;37940;53.002;6.930;2022-12-10T02:36:31;-2.50;99.90
51914;DHT22;37940;53.002;6.930;2022-12-10T02:39:00;-2.50;99.90
51914;DHT22;37940;53.002;6.930;2022-12-10T02:41:30;-2.50;99.90
51914;DHT22;37940;53.002;6.930;2022-12-10T02:43:59;-2.50;99.90
51914;DHT22;37940;53.002;6.930;2022-12-10T02:46:28;-1.20;99.90
51914;DHT22;37940;53.002;6.930;2022-12-10T02:48:55;-2.50;99.90
51914;DHT22;37940;53.002;6.930;2022-12-10T02:51:21;-2.50;99.90
51914;DHT22;37940;53.002;6.930;2022-12-10T02:53:47;-2.50;99.90
51914;DHT22;37940;53.002;6.930;2022-12-10T02:58:56;-2.50;99.90
51914;DHT22;37940;53.002;6.930;2022-12-10T03:01:32;-2.50;99.90
51914;DHT22;37940;53.002;6.930;2022-12-10T03:04:17;-2.50;99.90
51914;DHT22;37940;53.002;6.930;2022-12-10T03:06:51;-2.50;99.90
51914;DHT22;37940;53.002;6.930;2022-12-10T03:09:24;-2.50;99.90
51914;DHT22;37940;53.002;6.930;2022-12-10T03:11:59;-2.60;99.90
51914;DHT22;37940;53.002;6.930;2022-12-10T03:14:31;-2.60;99.90
51914;DHT22;37940;53.002;6.930;2022-12-10T03:17:00;-2.60;99.90
51914;DHT22;37940;53.002;6.930;2022-12-10T03:19:41;-2.60;99.90
51914;DHT22;37940;53.002;6.930;2022-12-10T03:22:10;-2.70;99.90
51914;DHT22;37940;53.002;6.930;2022-12-10T03:24:39;-2.70;99.90
51914;DHT22;37940;53.002;6.930;2022-12-10T03:27:06;-2.70;99.90
51914;DHT22;37940;53.002;6.930;2022-12-10T03:29:46;-2.70;99.90
51914;DHT22;37940;53.002;6.930;2022-12-10T03:32:14;-2.80;99.90
51914;DHT22;37940;53.002;6.930;2022-12-10T03:34:42;-2.80;99.90
51914;DHT22;37940;53.002;6.930;2022-12-10T03:37:09;-2.80;99.90
51914;DHT22;37940;53.002;6.930;2022-12-10T03:39:37;-2.80;99.90
51914;DHT22;37940;53.002;6.930;2022-12-10T03:42:04;-2.80;99.90
51914;DHT22;37940;53.002;6.930;2022-12-10T03:44:35;-2.80;99.90
51914;DHT22;37940;53.002;6.930;2022-12-10T03:47:05;-2.80;99.90
51914;DHT22;37940;53.002;6.930;2022-12-10T03:49:31;-2.80;99.90
51914;DHT22;37940;53.002;6.930;2022-12-10T03:51:56;-2.80;99.90
51914;DHT22;37940;53.002;6.930;2022-12-10T03:54:22;-2.80;99.90
51914;DHT22;37940;53.002;6.930;2022-12-10T03:56:48;-2.80;99.90
51914;DHT22;37940;53.002;6.930;2022-12-10T03:59:14;-2.90;99.90
51914;DHT22;37940;53.002;6.930;2022-12-10T04:01:41;-2.90;99.90
51914;DHT22;37940;53.002;6.930;2022-12-10T04:04:07;-2.90;99.90
51914;DHT22;37940;53.002;6.930;2022-12-10T04:06:33;-2.80;99.90
51914;DHT22;37940;53.002;6.930;2022-12-10T04:08:59;-2.90;99.90
51914;DHT22;37940;53.002;6.930;2022-12-10T04:11:25;-2.90;99.90
51914;DHT22;37940;53.002;6.930;2022-12-10T04:13:51;-2.90;99.90
51914;DHT22;37940;53.002;6.930;2022-12-10T04:16:36;-3.00;99.90
51914;DHT22;37940;53.002;6.930;2022-12-10T04:19:07;-3.00;99.90
51914;DHT22;37940;53.002;6.930;2022-12-10T04:21:35;-3.00;99.90
51914;DHT22;37940;53.002;6.930;2022-12-10T04:24:22;-3.00;99.90
51914;DHT22;37940;53.002;6.930;2022-12-10T04:27:25;-3.00;99.90
51914;DHT22;37940;53.002;6.930;2022-12-10T04:29:52;-3.00;99.90
51914;DHT22;37940;53.002;6.930;2022-12-10T04:32:18;-3.00;99.90
51914;DHT22;37940;53.002;6.930;2022-12-10T04:34:44;-3.00;99.90
51914;DHT22;37940;53.002;6.930;2022-12-10T04:37:10;-3.00;99.90
51914;DHT22;37940;53.002;6.930;2022-12-10T04:39:37;-2.20;99.90
51914;DHT22;37940;53.002;6.930;2022-12-10T04:42:03;-3.00;99.90
51914;DHT22;37940;53.002;6.930;2022-12-10T04:44:29;-1.50;99.90
51914;DHT22;37940;53.002;6.930;2022-12-10T04:46:55;-2.90;99.90
51914;DHT22;37940;53.002;6.930;2022-12-10T04:49:21;-2.90;99.90
51914;DHT22;37940;53.002;6.930;2022-12-10T04:51:47;-2.90;99.90
51914;DHT22;37940;53.002;6.930;2022-12-10T04:54:13;-2.90;99.90
51914;DHT22;37940;53.002;6.930;2022-12-10T04:56:39;-2.80;99.90
51914;DHT22;37940;53.002;6.930;2022-12-10T04:59:06;-2.90;99.90
51914;DHT22;37940;53.002;6.930;2022-12-10T05:01:32;-2.90;99.90
51914;DHT22;37940;53.002;6.930;2022-12-10T05:04:03;-2.90;99.90
51914;DHT22;37940;53.002;6.930;2022-12-10T05:06:30;-2.90;99.90
51914;DHT22;37940;53.002;6.930;2022-12-10T05:08:56;-2.90;99.90
51914;DHT22;37940;53.002;6.930;2022-12-10T05:11:23;-3.00;99.90
51914;DHT22;37940;53.002;6.930;2022-12-10T05:13:49;-3.00;99.90
51914;DHT22;37940;53.002;6.930;2022-12-10T05:16:17;-3.00;99.90
51914;DHT22;37940;53.002;6.930;2022-12-10T05:18:44;-3.00;99.90
51914;DHT22;37940;53.002;6.930;2022-12-10T05:21:12;-3.10;99.90
51914;DHT22;37940;53.002;6.930;2022-12-10T05:23:41;-3.10;99.90
51914;DHT22;37940;53.002;6.930;2022-12-10T05:26:12;-2.80;99.90
51914;DHT22;37940;53.002;6.930;2022-12-10T05:28:41;-3.10;99.90
51914;DHT22;37940;53.002;6.930;2022-12-10T05:31:20;-3.20;99.90
51914;DHT22;37940;53.002;6.930;2022-12-10T05:33:48;-3.20;99.90
51914;DHT22;37940;53.002;6.930;2022-12-10T05:36:16;-3.30;99.90
51914;DHT22;37940;53.002;6.930;2022-12-10T05:38:43;-3.30;99.90
51914;DHT22;37940;53.002;6.930;2022-12-10T05:41:15;-3.30;99.90
51914;DHT22;37940;53.002;6.930;2022-12-10T05:43:41;-3.30;99.90
51914;DHT22;37940;53.002;6.930;2022-12-10T05:46:11;-3.30;99.90
51914;DHT22;37940;53.002;6.930;2022-12-10T05:48:37;-3.40;99.90
51914;DHT22;37940;53.002;6.930;2022-12-10T05:51:09;-3.40;99.90
51914;DHT22;37940;53.002;6.930;2022-12-10T05:53:36;-3.40;99.90
51914;DHT22;37940;53.002;6.930;2022-12-10T05:56:04;-3.40;99.90
51914;DHT22;37940;53.002;6.930;2022-12-10T05:58:31;-3.50;99.90
51914;DHT22;37940;53.002;6.930;2022-12-10T06:00:57;-3.50;99.90
51914;DHT22;37940;53.002;6.930;2022-12-10T06:03:24;-3.50;99.90
51914;DHT22;37940;53.002;6.930;2022-12-10T06:05:51;-3.50;99.90
51914;DHT22;37940;53.002;6.930;2022-12-10T06:08:17;-3.50;99.90
51914;DHT22;37940;53.002;6.930;2022-12-10T06:10:42;-3.50;99.90
51914;DHT22;37940;53.002;6.930;2022-12-10T06:13:08;-3.50;99.90
51914;DHT22;37940;53.002;6.930;2022-12-10T06:15:34;-3.50;99.90
51914;DHT22;37940;53.002;6.930;2022-12-10T06:18:01;-3.50;99.90
51914;DHT22;37940;53.002;6.930;2022-12-10T06:20:26;-3.60;99.90
51914;DHT22;37940;53.002;6.930;2022-12-10T06:22:52;-3.60;99.90
51914;DHT22;37940;53.002;6.930;2022-12-10T06:25:18;-3.60;99.90
51914;DHT22;37940;53.002;6.930;2022-12-10T06:27:44;-3.60;99.90
51914;DHT22;37940;53.002;6.930;2022-12-10T06:30:10;-3.60;99.90
51914;DHT22;37940;53.002;6.930;2022-12-10T06:32:36;-3.60;99.90
51914;DHT22;37940;53.002;6.930;2022-12-10T06:35:03;-3.60;99.90
51914;DHT22;37940;53.002;6.930;2022-12-10T06:37:29;-3.60;99.90
51914;DHT22;37940;53.002;6.930;2022-12-10T06:39:55;-3.60;99.90
51914;DHT22;37940;53.002;6.930;2022-12-10T06:42:21;-3.60;99.90
51914;DHT22;37940;53.002;6.930;2022-12-10T06:44:46;-3.50;99.90
51914;DHT22;37940;53.002;6.930;2022-12-10T06:47:13;-3.50;99.90
51914;DHT22;37940;53.002;6.930;2022-12-10T06:49:39;-3.50;99.90
51914;DHT22;37940;53.002;6.930;2022-12-10T06:52:05;-3.50;99.90
51914;DHT22;37940;53.002;6.930;2022-12-10T06:54:31;-3.40;99.90
51914;DHT22;37940;53.002;6.930;2022-12-10T06:56:57;-3.30;99.90
51914;DHT22;37940;53.002;6.930;2022-12-10T06:59:23;-3.30;99.90
51914;DHT22;37940;53.002;6.930;2022-12-10T07:01:49;-3.20;99.90
51914;DHT22;37940;53.002;6.930;2022-12-10T07:04:15;-3.20;99.90
51914;DHT22;37940;53.002;6.930;2022-12-10T07:06:41;-3.10;99.90
51914;DHT22;37940;53.002;6.930;2022-12-10T07:09:07;-3.00;99.90
51914;DHT22;37940;53.002;6.930;2022-12-10T07:11:32;-3.00;99.90
51914;DHT22;37940;53.002;6.930;2022-12-10T07:13:59;-2.90;99.90
51914;DHT22;37940;53.002;6.930;2022-12-10T07:16:29;-2.90;99.90
51914;DHT22;37940;53.002;6.930;2022-12-10T07:18:56;-2.60;99.90
51914;DHT22;37940;53.002;6.930;2022-12-10T07:23:50;-2.80;99.90
51914;DHT22;37940;53.002;6.930;2022-12-10T07:26:17;-2.80;99.90
51914;DHT22;37940;53.002;6.930;2022-12-10T07:28:42;-2.80;99.90
51914;DHT22;37940;53.002;6.930;2022-12-10T07:31:09;-2.80;99.90
51914;DHT22;37940;53.002;6.930;2022-12-10T07:33:38;-2.80;99.90
51914;DHT22;37940;53.002;6.930;2022-12-10T07:36:07;-2.90;99.90
51914;DHT22;37940;53.002;6.930;2022-12-10T07:38:33;-2.60;99.90
51914;DHT22;37940;53.002;6.930;2022-12-10T07:41:03;-3.00;99.90
51914;DHT22;37940;53.002;6.930;2022-12-10T07:43:29;-3.00;99.90
51914;DHT22;37940;53.002;6.930;2022-12-10T07:45:55;-3.00;99.90
51914;DHT22;37940;53.002;6.930;2022-12-10T07:48:21;-3.00;99.90
51914;DHT22;37940;53.002;6.930;2022-12-10T07:50:47;-3.00;99.90
51914;DHT22;37940;53.002;6.930;2022-12-10T07:53:12;-3.00;99.90
51914;DHT22;37940;53.002;6.930;2022-12-10T07:55:38;-3.00;99.90
51914;DHT22;37940;53.002;6.930;2022-12-10T07:58:04;-3.00;99.90
51914;DHT22;37940;53.002;6.930;2022-12-10T08:00:29;-3.00;99.90
51914;DHT22;37940;53.002;6.930;2022-12-10T08:02:55;-3.00;99.90
51914;DHT22;37940;53.002;6.930;2022-12-10T08:05:22;-3.10;99.90
51914;DHT22;37940;53.002;6.930;2022-12-10T08:07:48;-3.10;99.90
51914;DHT22;37940;53.002;6.930;2022-12-10T08:10:13;-3.10;99.90
51914;DHT22;37940;53.002;6.930;2022-12-10T08:12:39;-3.00;99.90
51914;DHT22;37940;53.002;6.930;2022-12-10T08:15:05;-3.00;99.90
51914;DHT22;37940;53.002;6.930;2022-12-10T08:17:31;-3.00;99.90
51914;DHT22;37940;53.002;6.930;2022-12-10T08:19:57;-2.90;99.90
51914;DHT22;37940;53.002;6.930;2022-12-10T08:22:22;-2.90;99.90
51914;DHT22;37940;53.002;6.930;2022-12-10T08:24:48;-2.90;99.90
51914;DHT22;37940;53.002;6.930;2022-12-10T08:27:14;-2.00;99.90
51914;DHT22;37940;53.002;6.930;2022-12-10T08:29:39;-2.80;99.90
51914;DHT22;37940;53.002;6.930;2022-12-10T08:32:05;-2.80;99.90
51914;DHT22;37940;53.002;6.930;2022-12-10T08:34:31;-2.70;99.90
51914;DHT22;37940;53.002;6.930;2022-12-10T08:36:56;-2.60;99.90
51914;DHT22;37940;53.002;6.930;2022-12-10T08:39:22;-2.60;99.90
51914;DHT22;37940;53.002;6.930;2022-12-10T08:41:48;-2.50;99.90
51914;DHT22;37940;53.002;6.930;2022-12-10T08:44:14;-2.30;99.90
51914;DHT22;37940;53.002;6.930;2022-12-10T08:46:40;-2.10;99.90
51914;DHT22;37940;53.002;6.930;2022-12-10T08:49:06;-2.00;99.90
51914;DHT22;37940;53.002;6.930;2022-12-10T08:51:33;-2.00;99.90
51914;DHT22;37940;53.002;6.930;2022-12-10T08:53:58;-2.00;99.90
51914;DHT22;37940;53.002;6.930;2022-12-10T08:56:24;-2.10;99.90
51914;DHT22;37940;53.002;6.930;2022-12-10T08:58:50;-2.10;99.90
51914;DHT22;37940;53.002;6.930;2022-12-10T09:01:17;-0.70;99.90
51914;DHT22;37940;53.002;6.930;2022-12-10T09:03:43;-2.10;99.90
51914;DHT22;37940;53.002;6.930;2022-12-10T09:06:12;-2.00;99.90
51914;DHT22;37940;53.002;6.930;2022-12-10T09:08:38;-1.90;99.90
51914;DHT22;37940;53.002;6.930;2022-12-10T09:11:13;-1.90;99.90
51914;DHT22;37940;53.002;6.930;2022-12-10T09:13:39;-1.80;99.90
51914;DHT22;37940;53.002;6.930;2022-12-10T09:16:05;-1.90;99.90
51914;DHT22;37940;53.002;6.930;2022-12-10T09:18:31;-1.90;99.90
51914;DHT22;37940;53.002;6.930;2022-12-10T09:20:56;-1.40;99.90
51914;DHT22;37940;53.002;6.930;2022-12-10T09:23:22;-2.00;99.90
51914;DHT22;37940;53.002;6.930;2022-12-10T09:25:49;-2.10;99.90
51914;DHT22;37940;53.002;6.930;2022-12-10T09:28:14;-2.10;99.90
51914;DHT22;37940;53.002;6.930;2022-12-10T09:30:40;-2.10;99.90
51914;DHT22;37940;53.002;6.930;2022-12-10T09:33:06;-2.10;99.90
51914;DHT22;37940;53.002;6.930;2022-12-10T09:35:32;-2.00;99.90
51914;DHT22;37940;53.002;6.930;2022-12-10T09:37:58;-2.00;99.90
51914;DHT22;37940;53.002;6.930;2022-12-10T09:40:37;-2.00;99.90
51914;DHT22;37940;53.002;6.930;2022-12-10T09:43:26;-1.90;99.90
51914;DHT22;37940;53.002;6.930;2022-12-10T09:46:18;-1.90;99.90
51914;DHT22;37940;53.002;6.930;2022-12-10T09:51:35;-1.80;99.90
51914;DHT22;37940;53.002;6.930;2022-12-10T09:54:04;-1.90;99.90
51914;DHT22;37940;53.002;6.930;2022-12-10T09:56:37;-1.90;99.90
51914;DHT22;37940;53.002;6.930;2022-12-10T10:04:45;-1.70;99.90
51914;DHT22;37940;53.002;6.930;2022-12-10T10:07:19;-1.60;99.90
51914;DHT22;37940;53.002;6.930;2022-12-10T10:09:46;-1.40;99.90
51914;DHT22;37940;53.002;6.930;2022-12-10T10:12:15;-1.30;99.90
51914;DHT22;37940;53.002;6.930;2022-12-10T10:14:42;-1.20;99.90
51914;DHT22;37940;53.002;6.930;2022-12-10T10:17:22;-0.40;99.90
51914;DHT22;37940;53.002;6.930;2022-12-10T10:19:51;-1.00;99.90
51914;DHT22;37940;53.002;6.930;2022-12-10T10:22:17;-1.00;99.90
51914;DHT22;37940;53.002;6.930;2022-12-10T10:24:45;-0.80;99.90
51914;DHT22;37940;53.002;6.930;2022-12-10T10:27:20;0.00;99.90
51914;DHT22;37940;53.002;6.930;2022-12-10T10:29:49;-0.80;99.90
51914;DHT22;37940;53.002;6.930;2022-12-10T10:32:19;0.70;99.90
51914;DHT22;37940;53.002;6.930;2022-12-10T10:34:51;-0.50;99.90
51914;DHT22;37940;53.002;6.930;2022-12-10T10:37:41;-0.70;99.90
51914;DHT22;37940;53.002;6.930;2022-12-10T10:40:22;-0.60;99.90
51914;DHT22;37940;53.002;6.930;2022-12-10T10:42:52;-0.60;99.90
51914;DHT22;37940;53.002;6.930;2022-12-10T10:48:10;-0.50;99.90
51914;DHT22;37940;53.002;6.930;2022-12-10T10:50:39;-0.50;99.90
51914;DHT22;37940;53.002;6.930;2022-12-10T10:53:25;-0.40;99.90
51914;DHT22;37940;53.002;6.930;2022-12-10T10:55:54;-0.50;99.90
51914;DHT22;37940;53.002;6.930;2022-12-10T10:58:22;-0.30;99.90
51914;DHT22;37940;53.002;6.930;2022-12-10T11:00:56;-0.30;99.90
51914;DHT22;37940;53.002;6.930;2022-12-10T11:03:23;-0.20;99.90
51914;DHT22;37940;53.002;6.930;2022-12-10T11:05:51;-0.30;99.90
51914;DHT22;37940;53.002;6.930;2022-12-10T11:08:18;-0.30;99.90
51914;DHT22;37940;53.002;6.930;2022-12-10T11:10:59;-0.30;99.90
51914;DHT22;37940;53.002;6.930;2022-12-10T11:13:31;-0.20;99.90
51914;DHT22;37940;53.002;6.930;2022-12-10T11:16:19;-0.20;99.90
51914;DHT22;37940;53.002;6.930;2022-12-10T11:19:07;-0.20;99.90
51914;DHT22;37940;53.002;6.930;2022-12-10T11:21:41;-0.20;99.90
51914;DHT22;37940;53.002;6.930;2022-12-10T11:24:12;-0.20;99.90
51914;DHT22;37940;53.002;6.930;2022-12-10T11:26:43;-0.20;99.90
51914;DHT22;37940;53.002;6.930;2022-12-10T11:40:35;-0.20;99.90
51914;DHT22;37940;53.002;6.930;2022-12-10T11:43:23;-0.20;99.90
51914;DHT22;37940;53.002;6.930;2022-12-10T11:59:56;0.30;99.90
51914;DHT22;37940;53.002;6.930;2022-12-10T12:15:57;0.10;99.90
51914;DHT22;37940;53.002;6.930;2022-12-10T12:20:58;0.00;99.90
51914;DHT22;37940;53.002;6.930;2022-12-10T12:23:36;0.00;99.90
51914;DHT22;37940;53.002;6.930;2022-12-10T12:27:00;0.00;99.90
51914;DHT22;37940;53.002;6.930;2022-12-10T12:29:17;0.30;99.90
51914;DHT22;37940;53.002;6.930;2022-12-10T12:31:57;-0.10;99.90
51914;DHT22;37940;53.002;6.930;2022-12-10T12:37:18;-0.10;99.90
51914;DHT22;37940;53.002;6.930;2022-12-10T12:40:33;-0.10;99.90
51914;DHT22;37940;53.002;6.930;2022-12-10T12:45:40;-0.20;99.90
51914;DHT22;37940;53.002;6.930;2022-12-10T12:50:50;-0.20;99.90
51914;DHT22;37940;53.002;6.930;2022-12-10T12:53:21;-0.30;99.90
51914;DHT22;37940;53.002;6.930;2022-12-10T12:56:02;-0.30;99.90
51914;DHT22;37940;53.002;6.930;2022-12-10T12:58:56;-0.30;99.90
51914;DHT22;37940;53.002;6.930;2022-12-10T13:01:53;-0.30;99.90
51914;DHT22;37940;53.002;6.930;2022-12-10T13:04:19;-0.40;99.90
51914;DHT22;37940;53.002;6.930;2022-12-10T13:12:45;-0.50;99.90
51914;DHT22;37940;53.002;6.930;2022-12-10T13:15:19;-0.40;99.90
51914;DHT22;37940;53.002;6.930;2022-12-10T13:20:50;-0.70;99.90
51914;DHT22;37940;53.002;6.930;2022-12-10T13:33:51;-0.80;99.90
51914;DHT22;37940;53.002;6.930;2022-12-10T13:37:02;-0.80;99.90
51914;DHT22;37940;53.002;6.930;2022-12-10T13:47:47;-0.80;99.90
51914;DHT22;37940;53.002;6.930;2022-12-10T13:59:03;-0.70;99.90
51914;DHT22;37940;53.002;6.930;2022-12-10T14:01:57;-0.70;99.90
51914;DHT22;37940;53.002;6.930;2022-12-10T14:07:19;-0.60;99.90
51914;DHT22;37940;53.002;6.930;2022-12-10T14:09:53;-0.60;99.90
51914;DHT22;37940;53.002;6.930;2022-12-10T14:12:31;-0.60;99.90
51914;DHT22;37940;53.002;6.930;2022-12-10T14:15:16;-0.60;99.90
51914;DHT22;37940;53.002;6.930;2022-12-10T14:17:44;-0.60;99.90
51914;DHT22;37940;53.002;6.930;2022-12-10T14:20:19;-0.60;99.90
51914;DHT22;37940;53.002;6.930;2022-12-10T14:22:49;-0.60;99.90
51914;DHT22;37940;53.002;6.930;2022-12-10T14:25:19;-0.60;99.90
51914;DHT22;37940;53.002;6.930;2022-12-10T14:27:48;-0.70;99.90
51914;DHT22;37940;53.002;6.930;2022-12-10T14:30:25;-0.70;99.90
51914;DHT22;37940;53.002;6.930;2022-12-10T14:32:57;-0.70;99.90
51914;DHT22;37940;53.002;6.930;2022-12-10T14:35:26;-0.70;99.90
51914;DHT22;37940;53.002;6.930;2022-12-10T14:37:54;-0.70;99.90
51914;DHT22;37940;53.002;6.930;2022-12-10T14:43:46;-0.80;99.90
51914;DHT22;37940;53.002;6.930;2022-12-10T14:46:18;-0.80;99.90
51914;DHT22;37940;53.002;6.930;2022-12-10T14:48:49;-0.90;99.90
51914;DHT22;37940;53.002;6.930;2022-12-10T14:51:22;-0.90;99.90
51914;DHT22;37940;53.002;6.930;2022-12-10T14:53:49;-0.90;99.90
51914;DHT22;37940;53.002;6.930;2022-12-10T14:56:33;-0.90;99.90
51914;DHT22;37940;53.002;6.930;2022-12-10T14:59:22;-0.90;99.90
51914;DHT22;37940;53.002;6.930;2022-12-10T15:01:53;-0.90;99.90
51914;DHT22;37940;53.002;6.930;2022-12-10T15:04:21;-1.00;99.90
51914;DHT22;37940;53.002;6.930;2022-12-10T15:06:48;-1.00;99.90
51914;DHT22;37940;53.002;6.930;2022-12-10T15:09:23;-1.00;99.90
51914;DHT22;37940;53.002;6.930;2022-12-10T15:11:57;-0.20;99.90
51914;DHT22;37940;53.002;6.930;2022-12-10T15:14:23;-1.00;99.90
51914;DHT22;37940;53.002;6.930;2022-12-10T15:16:51;-1.10;99.90
51914;DHT22;37940;53.002;6.930;2022-12-10T15:21:58;-1.00;99.90
51914;DHT22;37940;53.002;6.930;2022-12-10T15:24:36;-1.00;99.90
51914;DHT22;37940;53.002;6.930;2022-12-10T15:27:22;-1.00;99.90
51914;DHT22;37940;53.002;6.930;2022-12-10T15:29:48;-1.00;99.90
51914;DHT22;37940;53.002;6.930;2022-12-10T15:32:26;-1.00;99.90
51914;DHT22;37940;53.002;6.930;2022-12-10T15:34:59;0.20;99.90
51914;DHT22;37940;53.002;6.930;2022-12-10T15:37:31;-1.10;99.90
51914;DHT22;37940;53.002;6.930;2022-12-10T15:39:59;-1.00;99.90
51914;DHT22;37940;53.002;6.930;2022-12-10T15:45:08;-0.30;99.90
51914;DHT22;37940;53.002;6.930;2022-12-10T15:47:36;-1.00;99.90
51914;DHT22;37940;53.002;6.930;2022-12-10T15:50:04;-0.70;99.90
51914;DHT22;37940;53.002;6.930;2022-12-10T15:52:30;-1.10;99.90
51914;DHT22;37940;53.002;6.930;2022-12-10T15:55:00;-1.10;99.90
51914;DHT22;37940;53.002;6.930;2022-12-10T15:57:37;-1.10;99.90
51914;DHT22;37940;53.002;6.930;2022-12-10T16:00:15;-1.10;99.90
51914;DHT22;37940;53.002;6.930;2022-12-10T16:05:26;-1.20;99.90
51914;DHT22;37940;53.002;6.930;2022-12-10T16:07:56;0.10;99.90
51914;DHT22;37940;53.002;6.930;2022-12-10T16:10:24;-1.20;99.90
51914;DHT22;37940;53.002;6.930;2022-12-10T16:13:01;-1.20;99.90
51914;DHT22;37940;53.002;6.930;2022-12-10T16:15:31;0.00;99.90
51914;DHT22;37940;53.002;6.930;2022-12-10T16:18:02;-1.20;99.90
51914;DHT22;37940;53.002;6.930;2022-12-10T16:20:30;-1.20;99.90
51914;DHT22;37940;53.002;6.930;2022-12-10T16:22:57;-1.20;99.90
51914;DHT22;37940;53.002;6.930;2022-12-10T16:25:25;-1.30;99.90
51914;DHT22;37940;53.002;6.930;2022-12-10T16:27:51;0.30;99.90
51914;DHT22;37940;53.002;6.930;2022-12-10T16:30:20;-0.30;99.90
51914;DHT22;37940;53.002;6.930;2022-12-10T16:32:47;-1.30;99.90
51914;DHT22;37940;53.002;6.930;2022-12-10T16:35:13;-1.30;99.90
51914;DHT22;37940;53.002;6.930;2022-12-10T16:37:44;-0.90;99.90
51914;DHT22;37940;53.002;6.930;2022-12-10T16:40:12;-1.30;99.90
51914;DHT22;37940;53.002;6.930;2022-12-10T16:42:38;-1.10;99.90
51914;DHT22;37940;53.002;6.930;2022-12-10T16:45:27;-1.30;99.90
51914;DHT22;37940;53.002;6.930;2022-12-10T16:47:53;-1.40;99.90
51914;DHT22;37940;53.002;6.930;2022-12-10T16:50:20;-1.40;99.90
51914;DHT22;37940;53.002;6.930;2022-12-10T16:52:47;-1.40;99.90
51914;DHT22;37940;53.002;6.930;2022-12-10T16:55:16;-1.40;99.90
51914;DHT22;37940;53.002;6.930;2022-12-10T16:57:42;-0.60;99.90
51914;DHT22;37940;53.002;6.930;2022-12-10T17:00:11;-1.40;99.90
51914;DHT22;37940;53.002;6.930;2022-12-10T17:02:37;-1.40;99.90
51914;DHT22;37940;53.002;6.930;2022-12-10T17:05:03;-1.40;99.90
51914;DHT22;37940;53.002;6.930;2022-12-10T17:07:29;-1.40;99.90
51914;DHT22;37940;53.002;6.930;2022-12-10T17:09:54;-1.40;99.90
51914;DHT22;37940;53.002;6.930;2022-12-10T17:12:20;-1.40;99.90
51914;DHT22;37940;53.002;6.930;2022-12-10T17:14:46;-0.70;99.90
51914;DHT22;37940;53.002;6.930;2022-12-10T17:17:13;-1.40;99.90
51914;DHT22;37940;53.002;6.930;2022-12-10T17:19:40;-1.40;99.90
51914;DHT22;37940;53.002;6.930;2022-12-10T17:22:07;-1.40;99.90
51914;DHT22;37940;53.002;6.930;2022-12-10T17:24:34;-1.40;99.90
51914;DHT22;37940;53.002;6.930;2022-12-10T17:27:13;-1.40;99.90
51914;DHT22;37940;53.002;6.930;2022-12-10T17:29:42;-1.50;99.90
51914;DHT22;37940;53.002;6.930;2022-12-10T17:32:13;-1.40;99.90
51914;DHT22;37940;53.002;6.930;2022-12-10T17:34:39;-1.50;99.90
51914;DHT22;37940;53.002;6.930;2022-12-10T17:37:17;-1.50;99.90
51914;DHT22;37940;53.002;6.930;2022-12-10T17:39:44;-1.40;99.90
51914;DHT22;37940;53.002;6.930;2022-12-10T17:42:10;-1.40;99.90
51914;DHT22;37940;53.002;6.930;2022-12-10T17:44:36;-1.50;99.90
51914;DHT22;37940;53.002;6.930;2022-12-10T17:47:19;-1.50;99.90
51914;DHT22;37940;53.002;6.930;2022-12-10T17:49:45;-1.50;99.90
51914;DHT22;37940;53.002;6.930;2022-12-10T17:52:11;-0.40;99.90
51914;DHT22;37940;53.002;6.930;2022-12-10T17:54:37;-1.50;99.90
51914;DHT22;37940;53.002;6.930;2022-12-10T17:57:09;-1.50;99.90
51914;DHT22;37940;53.002;6.930;2022-12-10T17:59:35;-1.50;99.90
51914;DHT22;37940;53.002;6.930;2022-12-10T18:02:01;-1.50;99.90